sensor_id;sensor_type;location;lat;lon;timestamp;P1;durP1;ratioP1;P2;durP2;ratioP2
20734;SDS011;10528;52.124;5.196;2023-04-24T00:01:38;2.45;;;0.80;;
20734;SDS011;10528;52.124;5.196;2023-04-24T00:04:05;2.42;;;0.82;;
20734;SDS011;10528;52.124;5.196;2023-04-24T00:06:33;3.67;;;1.00;;
20734;SDS011;10528;52.124;5.196;2023-04-24T00:09:00;1.50;;;0.90;;
20734;SDS011;10528;52.124;5.196;2023-04-24T00:11:28;1.42;;;1.00;;
20734;SDS011;10528;52.124;5.196;2023-04-24T00:13:56;2.50;;;0.70;;
20734;SDS011;10528;52.124;5.196;2023-04-24T00:16:23;1.60;;;0.50;;
20734;SDS011;10528;52.124;5.196;2023-04-24T00:18:50;0.93;;;0.50;;
20734;SDS011;10528;52.124;5.196;2023-04-24T00:21:18;1.27;;;0.57;;
20734;SDS011;10528;52.124;5.196;2023-04-24T00:23:46;1.13;;;0.60;;
20734;SDS011;10528;52.124;5.196;2023-04-24T00:26:14;1.55;;;0.80;;
20734;SDS011;10528;52.124;5.196;2023-04-24T00:28:41;1.00;;;0.70;;
20734;SDS011;10528;52.124;5.196;2023-04-24T00:31:07;1.38;;;0.70;;
20734;SDS011;10528;52.124;5.196;2023-04-24T00:33:34;1.10;;;0.88;;
20734;SDS011;10528;52.124;5.196;2023-04-24T00:36:02;0.80;;;0.70;;
20734;SDS011;10528;52.124;5.196;2023-04-24T00:38:29;1.83;;;0.60;;
20734;SDS011;10528;52.124;5.196;2023-04-24T00:40:56;1.67;;;0.75;;
20734;SDS011;10528;52.124;5.196;2023-04-24T00:43:23;0.73;;;0.70;;
20734;SDS011;10528;52.124;5.196;2023-04-24T00:45:50;3.53;;;0.70;;
20734;SDS011;10528;52.124;5.196;2023-04-24T00:48:17;1.45;;;0.75;;
20734;SDS011;10528;52.124;5.196;2023-04-24T00:50:45;0.80;;;0.73;;
20734;SDS011;10528;52.124;5.196;2023-04-24T00:53:13;1.70;;;0.88;;
20734;SDS011;10528;52.124;5.196;2023-04-24T00:55:39;3.40;;;0.95;;
20734;SDS011;10528;52.124;5.196;2023-04-24T00:58:06;2.10;;;1.00;;
20734;SDS011;10528;52.124;5.196;2023-04-24T01:00:34;2.05;;;1.20;;
20734;SDS011;10528;52.124;5.196;2023-04-24T01:03:01;2.00;;;1.20;;
20734;SDS011;10528;52.124;5.196;2023-04-24T01:05:32;1.55;;;1.30;;
20734;SDS011;10528;52.124;5.196;2023-04-24T01:08:00;2.38;;;1.33;;
20734;SDS011;10528;52.124;5.196;2023-04-24T01:10:29;2.30;;;1.75;;
20734;SDS011;10528;52.124;5.196;2023-04-24T01:12:59;3.17;;;2.15;;
20734;SDS011;10528;52.124;5.196;2023-04-24T01:15:26;3.80;;;2.65;;
20734;SDS011;10528;52.124;5.196;2023-04-24T01:17:53;4.35;;;2.80;;
20734;SDS011;10528;52.124;5.196;2023-04-24T01:20:20;4.22;;;3.05;;
20734;SDS011;10528;52.124;5.196;2023-04-24T01:22:47;4.75;;;2.90;;
20734;SDS011;10528;52.124;5.196;2023-04-24T01:25:14;3.10;;;2.80;;
20734;SDS011;10528;52.124;5.196;2023-04-24T01:27:41;4.25;;;2.72;;
20734;SDS011;10528;52.124;5.196;2023-04-24T01:30:10;3.45;;;2.83;;
20734;SDS011;10528;52.124;5.196;2023-04-24T01:32:38;3.33;;;2.63;;
20734;SDS011;10528;52.124;5.196;2023-04-24T01:35:06;4.72;;;2.90;;
20734;SDS011;10528;52.124;5.196;2023-04-24T01:37:34;3.97;;;2.78;;
20734;SDS011;10528;52.124;5.196;2023-04-24T01:40:04;3.53;;;2.90;;
20734;SDS011;10528;52.124;5.196;2023-04-24T01:42:34;5.43;;;3.00;;
20734;SDS011;10528;52.124;5.196;2023-04-24T01:45:01;5.22;;;3.53;;
20734;SDS011;10528;52.124;5.196;2023-04-24T01:47:31;4.57;;;3.60;;
20734;SDS011;10528;52.124;5.196;2023-04-24T01:49:59;5.53;;;3.75;;
20734;SDS011;10528;52.124;5.196;2023-04-24T01:52:26;4.65;;;3.95;;
20734;SDS011;10528;52.124;5.196;2023-04-24T01:54:55;5.22;;;4.20;;
20734;SDS011;10528;52.124;5.196;2023-04-24T01:57:22;4.55;;;3.83;;
20734;SDS011;10528;52.124;5.196;2023-04-24T01:59:49;5.28;;;3.78;;
20734;SDS011;10528;52.124;5.196;2023-04-24T02:02:17;5.22;;;3.83;;
20734;SDS011;10528;52.124;5.196;2023-04-24T02:04:44;4.72;;;3.55;;
20734;SDS011;10528;52.124;5.196;2023-04-24T02:07:11;6.43;;;3.88;;
20734;SDS011;10528;52.124;5.196;2023-04-24T02:09:38;5.15;;;3.63;;
20734;SDS011;10528;52.124;5.196;2023-04-24T02:12:05;4.15;;;3.60;;
20734;SDS011;10528;52.124;5.196;2023-04-24T02:14:32;5.45;;;3.67;;
20734;SDS011;10528;52.124;5.196;2023-04-24T02:16:59;3.88;;;3.35;;
20734;SDS011;10528;52.124;5.196;2023-04-24T02:19:27;4.85;;;3.58;;
20734;SDS011;10528;52.124;5.196;2023-04-24T02:21:54;5.07;;;3.25;;
20734;SDS011;10528;52.124;5.196;2023-04-24T02:24:21;3.70;;;3.28;;
20734;SDS011;10528;52.124;5.196;2023-04-24T02:26:48;4.10;;;3.28;;
20734;SDS011;10528;52.124;5.196;2023-04-24T02:29:15;5.30;;;3.35;;
20734;SDS011;10528;52.124;5.196;2023-04-24T02:31:41;4.75;;;3.60;;
20734;SDS011;10528;52.124;5.196;2023-04-24T02:34:08;5.00;;;3.65;;
20734;SDS011;10528;52.124;5.196;2023-04-24T02:36:35;3.67;;;3.17;;
20734;SDS011;10528;52.124;5.196;2023-04-24T02:39:02;4.78;;;3.10;;
20734;SDS011;10528;52.124;5.196;2023-04-24T02:41:31;4.68;;;3.13;;
20734;SDS011;10528;52.124;5.196;2023-04-24T02:43:58;4.07;;;3.38;;
20734;SDS011;10528;52.124;5.196;2023-04-24T02:46:25;4.57;;;3.60;;
20734;SDS011;10528;52.124;5.196;2023-04-24T02:48:53;5.45;;;3.75;;
20734;SDS011;10528;52.124;5.196;2023-04-24T02:51:20;3.72;;;3.25;;
20734;SDS011;10528;52.124;5.196;2023-04-24T02:53:46;3.50;;;2.65;;
20734;SDS011;10528;52.124;5.196;2023-04-24T02:56:13;2.65;;;2.13;;
20734;SDS011;10528;52.124;5.196;2023-04-24T02:58:40;2.63;;;1.95;;
20734;SDS011;10528;52.124;5.196;2023-04-24T03:01:08;3.10;;;1.90;;
20734;SDS011;10528;52.124;5.196;2023-04-24T03:03:36;2.75;;;2.10;;
20734;SDS011;10528;52.124;5.196;2023-04-24T03:06:05;3.22;;;2.50;;
20734;SDS011;10528;52.124;5.196;2023-04-24T03:08:34;4.20;;;2.00;;
20734;SDS011;10528;52.124;5.196;2023-04-24T03:11:01;2.75;;;1.90;;
20734;SDS011;10528;52.124;5.196;2023-04-24T03:13:28;2.88;;;1.83;;
20734;SDS011;10528;52.124;5.196;2023-04-24T03:15:55;1.92;;;1.40;;
20734;SDS011;10528;52.124;5.196;2023-04-24T03:18:22;1.85;;;1.50;;
20734;SDS011;10528;52.124;5.196;2023-04-24T03:20:51;4.10;;;1.73;;
20734;SDS011;10528;52.124;5.196;2023-04-24T03:23:18;2.22;;;1.55;;
20734;SDS011;10528;52.124;5.196;2023-04-24T03:25:45;2.10;;;1.38;;
20734;SDS011;10528;52.124;5.196;2023-04-24T03:28:12;1.85;;;1.30;;
20734;SDS011;10528;52.124;5.196;2023-04-24T03:30:46;3.28;;;1.60;;
20734;SDS011;10528;52.124;5.196;2023-04-24T03:33:14;2.03;;;1.30;;
20734;SDS011;10528;52.124;5.196;2023-04-24T03:35:52;2.15;;;1.48;;
20734;SDS011;10528;52.124;5.196;2023-04-24T03:38:19;1.23;;;1.00;;
20734;SDS011;10528;52.124;5.196;2023-04-24T03:40:52;1.35;;;1.05;;
20734;SDS011;10528;52.124;5.196;2023-04-24T03:43:39;4.03;;;1.13;;
20734;SDS011;10528;52.124;5.196;2023-04-24T03:46:06;2.55;;;1.40;;
20734;SDS011;10528;52.124;5.196;2023-04-24T03:48:39;2.75;;;1.40;;
20734;SDS011;10528;52.124;5.196;2023-04-24T03:51:07;3.08;;;1.30;;
20734;SDS011;10528;52.124;5.196;2023-04-24T03:53:36;4.82;;;1.80;;
20734;SDS011;10528;52.124;5.196;2023-04-24T03:56:04;2.28;;;1.70;;
20734;SDS011;10528;52.124;5.196;2023-04-24T03:58:32;2.97;;;1.80;;
20734;SDS011;10528;52.124;5.196;2023-04-24T04:00:59;3.42;;;1.90;;
20734;SDS011;10528;52.124;5.196;2023-04-24T04:03:49;3.17;;;2.28;;
20734;SDS011;10528;52.124;5.196;2023-04-24T04:06:19;4.45;;;2.70;;
20734;SDS011;10528;52.124;5.196;2023-04-24T04:08:48;3.67;;;2.60;;
20734;SDS011;10528;52.124;5.196;2023-04-24T04:11:15;4.65;;;3.28;;
20734;SDS011;10528;52.124;5.196;2023-04-24T04:13:43;3.97;;;2.78;;
20734;SDS011;10528;52.124;5.196;2023-04-24T04:16:11;4.65;;;3.55;;
20734;SDS011;10528;52.124;5.196;2023-04-24T04:18:39;6.25;;;3.85;;
20734;SDS011;10528;52.124;5.196;2023-04-24T04:21:06;4.60;;;3.55;;
20734;SDS011;10528;52.124;5.196;2023-04-24T04:23:33;5.63;;;3.70;;
20734;SDS011;10528;52.124;5.196;2023-04-24T04:26:11;5.00;;;3.30;;
20734;SDS011;10528;52.124;5.196;2023-04-24T04:28:59;5.20;;;4.20;;
20734;SDS011;10528;52.124;5.196;2023-04-24T04:31:31;4.90;;;3.50;;
20734;SDS011;10528;52.124;5.196;2023-04-24T04:34:01;5.03;;;3.63;;
20734;SDS011;10528;52.124;5.196;2023-04-24T04:36:30;7.47;;;3.85;;
20734;SDS011;10528;52.124;5.196;2023-04-24T04:39:06;4.90;;;3.78;;
20734;SDS011;10528;52.124;5.196;2023-04-24T04:41:46;5.75;;;3.60;;
20734;SDS011;10528;52.124;5.196;2023-04-24T04:44:16;6.60;;;4.20;;
20734;SDS011;10528;52.124;5.196;2023-04-24T04:46:44;4.97;;;3.38;;
20734;SDS011;10528;52.124;5.196;2023-04-24T04:49:34;6.32;;;3.78;;
20734;SDS011;10528;52.124;5.196;2023-04-24T04:52:04;6.80;;;4.03;;
20734;SDS011;10528;52.124;5.196;2023-04-24T04:54:31;5.50;;;4.13;;
20734;SDS011;10528;52.124;5.196;2023-04-24T04:56:58;5.45;;;3.50;;
20734;SDS011;10528;52.124;5.196;2023-04-24T04:59:25;6.90;;;4.18;;
20734;SDS011;10528;52.124;5.196;2023-04-24T05:01:59;5.80;;;4.13;;
20734;SDS011;10528;52.124;5.196;2023-04-24T05:04:26;5.78;;;3.97;;
20734;SDS011;10528;52.124;5.196;2023-04-24T05:06:53;5.15;;;3.80;;
20734;SDS011;10528;52.124;5.196;2023-04-24T05:09:22;5.30;;;3.80;;
20734;SDS011;10528;52.124;5.196;2023-04-24T05:11:53;4.50;;;3.53;;
20734;SDS011;10528;52.124;5.196;2023-04-24T05:14:22;4.85;;;3.33;;
20734;SDS011;10528;52.124;5.196;2023-04-24T05:16:49;5.97;;;3.92;;
20734;SDS011;10528;52.124;5.196;2023-04-24T05:19:19;5.03;;;3.05;;
20734;SDS011;10528;52.124;5.196;2023-04-24T05:21:46;3.47;;;2.53;;
20734;SDS011;10528;52.124;5.196;2023-04-24T05:24:13;2.97;;;2.00;;
20734;SDS011;10528;52.124;5.196;2023-04-24T05:27:12;2.53;;;1.70;;
20734;SDS011;10528;52.124;5.196;2023-04-24T05:29:40;4.38;;;2.83;;
20734;SDS011;10528;52.124;5.196;2023-04-24T05:32:08;4.60;;;3.58;;
20734;SDS011;10528;52.124;5.196;2023-04-24T05:34:35;7.50;;;6.63;;
20734;SDS011;10528;52.124;5.196;2023-04-24T05:37:02;23.60;;;18.20;;
20734;SDS011;10528;52.124;5.196;2023-04-24T05:39:29;6.47;;;4.63;;
20734;SDS011;10528;52.124;5.196;2023-04-24T05:41:58;3.17;;;1.63;;
20734;SDS011;10528;52.124;5.196;2023-04-24T05:44:25;1.38;;;0.60;;
20734;SDS011;10528;52.124;5.196;2023-04-24T05:46:52;2.92;;;0.60;;
20734;SDS011;10528;52.124;5.196;2023-04-24T05:49:19;2.10;;;0.68;;
20734;SDS011;10528;52.124;5.196;2023-04-24T05:51:46;1.52;;;0.70;;
20734;SDS011;10528;52.124;5.196;2023-04-24T05:54:15;1.85;;;0.60;;
20734;SDS011;10528;52.124;5.196;2023-04-24T05:56:42;1.48;;;0.60;;
20734;SDS011;10528;52.124;5.196;2023-04-24T05:59:12;2.83;;;1.10;;
20734;SDS011;10528;52.124;5.196;2023-04-24T06:01:40;1.88;;;0.65;;
20734;SDS011;10528;52.124;5.196;2023-04-24T06:04:13;2.25;;;0.80;;
20734;SDS011;10528;52.124;5.196;2023-04-24T06:06:40;1.63;;;1.02;;
20734;SDS011;10528;52.124;5.196;2023-04-24T06:09:07;2.75;;;1.00;;
20734;SDS011;10528;52.124;5.196;2023-04-24T06:11:34;1.67;;;1.00;;
20734;SDS011;10528;52.124;5.196;2023-04-24T06:14:02;1.45;;;0.80;;
20734;SDS011;10528;52.124;5.196;2023-04-24T06:16:38;3.35;;;1.20;;
20734;SDS011;10528;52.124;5.196;2023-04-24T06:19:21;1.83;;;1.20;;
20734;SDS011;10528;52.124;5.196;2023-04-24T06:21:47;4.93;;;1.80;;
20734;SDS011;10528;52.124;5.196;2023-04-24T06:24:14;5.53;;;3.25;;
20734;SDS011;10528;52.124;5.196;2023-04-24T06:26:42;7.63;;;5.13;;
20734;SDS011;10528;52.124;5.196;2023-04-24T06:29:09;8.05;;;5.47;;
20734;SDS011;10528;52.124;5.196;2023-04-24T06:31:36;9.90;;;5.93;;
20734;SDS011;10528;52.124;5.196;2023-04-24T06:34:03;11.40;;;6.65;;
20734;SDS011;10528;52.124;5.196;2023-04-24T06:36:30;12.25;;;6.85;;
20734;SDS011;10528;52.124;5.196;2023-04-24T06:38:58;9.60;;;6.57;;
20734;SDS011;10528;52.124;5.196;2023-04-24T06:41:25;13.25;;;7.63;;
20734;SDS011;10528;52.124;5.196;2023-04-24T06:43:52;10.35;;;7.22;;
20734;SDS011;10528;52.124;5.196;2023-04-24T06:46:19;11.98;;;7.32;;
20734;SDS011;10528;52.124;5.196;2023-04-24T06:48:48;14.35;;;7.97;;
20734;SDS011;10528;52.124;5.196;2023-04-24T06:51:16;15.75;;;7.72;;
20734;SDS011;10528;52.124;5.196;2023-04-24T06:53:44;12.50;;;7.15;;
20734;SDS011;10528;52.124;5.196;2023-04-24T06:56:13;13.18;;;7.38;;
20734;SDS011;10528;52.124;5.196;2023-04-24T06:58:40;15.30;;;8.05;;
20734;SDS011;10528;52.124;5.196;2023-04-24T07:01:07;13.95;;;8.20;;
20734;SDS011;10528;52.124;5.196;2023-04-24T07:03:34;13.68;;;7.70;;
20734;SDS011;10528;52.124;5.196;2023-04-24T07:06:01;12.10;;;7.20;;
20734;SDS011;10528;52.124;5.196;2023-04-24T07:08:29;15.23;;;7.20;;
20734;SDS011;10528;52.124;5.196;2023-04-24T07:10:59;11.52;;;7.43;;
20734;SDS011;10528;52.124;5.196;2023-04-24T07:13:26;14.00;;;7.03;;
20734;SDS011;10528;52.124;5.196;2023-04-24T07:15:53;15.75;;;7.63;;
20734;SDS011;10528;52.124;5.196;2023-04-24T07:18:22;15.32;;;7.65;;
20734;SDS011;10528;52.124;5.196;2023-04-24T07:20:49;12.63;;;7.28;;
20734;SDS011;10528;52.124;5.196;2023-04-24T07:23:19;13.70;;;6.57;;
20734;SDS011;10528;52.124;5.196;2023-04-24T07:25:46;13.23;;;7.28;;
20734;SDS011;10528;52.124;5.196;2023-04-24T07:28:13;13.05;;;7.60;;
20734;SDS011;10528;52.124;5.196;2023-04-24T07:30:40;12.48;;;7.25;;
20734;SDS011;10528;52.124;5.196;2023-04-24T07:33:07;14.13;;;6.85;;
20734;SDS011;10528;52.124;5.196;2023-04-24T07:35:34;14.30;;;7.65;;
20734;SDS011;10528;52.124;5.196;2023-04-24T07:38:01;16.35;;;7.65;;
20734;SDS011;10528;52.124;5.196;2023-04-24T07:40:28;18.88;;;7.55;;
20734;SDS011;10528;52.124;5.196;2023-04-24T07:42:55;13.68;;;6.45;;
20734;SDS011;10528;52.124;5.196;2023-04-24T07:45:22;13.70;;;6.03;;
20734;SDS011;10528;52.124;5.196;2023-04-24T07:47:50;15.52;;;6.00;;
20734;SDS011;10528;52.124;5.196;2023-04-24T07:50:17;17.92;;;6.18;;
20734;SDS011;10528;52.124;5.196;2023-04-24T07:52:44;13.77;;;5.47;;
20734;SDS011;10528;52.124;5.196;2023-04-24T07:55:11;11.25;;;4.60;;
20734;SDS011;10528;52.124;5.196;2023-04-24T07:57:37;17.20;;;5.65;;
20734;SDS011;10528;52.124;5.196;2023-04-24T08:00:05;16.60;;;5.82;;
20734;SDS011;10528;52.124;5.196;2023-04-24T08:02:38;15.95;;;4.60;;
20734;SDS011;10528;52.124;5.196;2023-04-24T08:05:05;14.05;;;4.97;;
20734;SDS011;10528;52.124;5.196;2023-04-24T08:07:33;17.13;;;3.90;;
20734;SDS011;10528;52.124;5.196;2023-04-24T08:10:01;17.23;;;4.32;;
20734;SDS011;10528;52.124;5.196;2023-04-24T08:12:29;17.48;;;3.88;;
20734;SDS011;10528;52.124;5.196;2023-04-24T08:14:56;11.77;;;3.33;;
20734;SDS011;10528;52.124;5.196;2023-04-24T08:17:23;14.57;;;3.58;;
20734;SDS011;10528;52.124;5.196;2023-04-24T08:19:50;14.70;;;3.55;;
20734;SDS011;10528;52.124;5.196;2023-04-24T08:22:19;18.45;;;3.53;;
20734;SDS011;10528;52.124;5.196;2023-04-24T08:24:46;14.75;;;3.30;;
20734;SDS011;10528;52.124;5.196;2023-04-24T08:27:12;13.43;;;2.92;;
20734;SDS011;10528;52.124;5.196;2023-04-24T08:29:39;15.48;;;4.68;;
20734;SDS011;10528;52.124;5.196;2023-04-24T08:32:06;16.10;;;4.00;;
20734;SDS011;10528;52.124;5.196;2023-04-24T08:34:33;10.95;;;3.00;;
20734;SDS011;10528;52.124;5.196;2023-04-24T08:37:00;10.45;;;2.50;;
20734;SDS011;10528;52.124;5.196;2023-04-24T08:39:28;10.80;;;2.45;;
20734;SDS011;10528;52.124;5.196;2023-04-24T08:41:55;8.50;;;2.13;;
20734;SDS011;10528;52.124;5.196;2023-04-24T08:44:22;12.68;;;2.78;;
20734;SDS011;10528;52.124;5.196;2023-04-24T08:46:49;8.57;;;1.88;;
20734;SDS011;10528;52.124;5.196;2023-04-24T08:49:17;15.88;;;2.38;;
20734;SDS011;10528;52.124;5.196;2023-04-24T08:51:46;8.95;;;2.47;;
20734;SDS011;10528;52.124;5.196;2023-04-24T08:54:13;11.43;;;2.85;;
20734;SDS011;10528;52.124;5.196;2023-04-24T08:56:41;9.27;;;2.10;;
20734;SDS011;10528;52.124;5.196;2023-04-24T08:59:11;14.60;;;2.90;;
20734;SDS011;10528;52.124;5.196;2023-04-24T09:01:38;8.43;;;2.17;;
20734;SDS011;10528;52.124;5.196;2023-04-24T09:04:07;7.93;;;2.25;;
20734;SDS011;10528;52.124;5.196;2023-04-24T09:06:37;9.38;;;2.58;;
20734;SDS011;10528;52.124;5.196;2023-04-24T09:09:05;9.80;;;2.35;;
20734;SDS011;10528;52.124;5.196;2023-04-24T09:11:34;7.35;;;2.28;;
20734;SDS011;10528;52.124;5.196;2023-04-24T09:14:01;6.43;;;1.80;;
20734;SDS011;10528;52.124;5.196;2023-04-24T09:16:29;14.38;;;2.35;;
20734;SDS011;10528;52.124;5.196;2023-04-24T09:19:02;9.25;;;2.17;;
20734;SDS011;10528;52.124;5.196;2023-04-24T09:21:32;7.65;;;2.20;;
20734;SDS011;10528;52.124;5.196;2023-04-24T09:24:05;12.00;;;2.45;;
20734;SDS011;10528;52.124;5.196;2023-04-24T09:26:40;10.05;;;2.22;;
20734;SDS011;10528;52.124;5.196;2023-04-24T09:29:08;10.13;;;2.53;;
20734;SDS011;10528;52.124;5.196;2023-04-24T09:31:44;14.25;;;2.17;;
20734;SDS011;10528;52.124;5.196;2023-04-24T09:34:12;11.65;;;2.72;;
20734;SDS011;10528;52.124;5.196;2023-04-24T09:36:40;10.75;;;2.10;;
20734;SDS011;10528;52.124;5.196;2023-04-24T09:39:09;5.57;;;1.85;;
20734;SDS011;10528;52.124;5.196;2023-04-24T09:41:47;7.63;;;2.05;;
20734;SDS011;10528;52.124;5.196;2023-04-24T09:44:20;8.70;;;1.95;;
20734;SDS011;10528;52.124;5.196;2023-04-24T09:46:55;5.47;;;1.95;;
20734;SDS011;10528;52.124;5.196;2023-04-24T09:49:30;6.22;;;1.77;;
20734;SDS011;10528;52.124;5.196;2023-04-24T09:52:05;6.32;;;1.88;;
20734;SDS011;10528;52.124;5.196;2023-04-24T09:54:37;8.43;;;1.92;;
20734;SDS011;10528;52.124;5.196;2023-04-24T09:57:09;4.85;;;1.42;;
20734;SDS011;10528;52.124;5.196;2023-04-24T09:59:41;4.07;;;1.50;;
20734;SDS011;10528;52.124;5.196;2023-04-24T10:02:18;7.68;;;1.77;;
20734;SDS011;10528;52.124;5.196;2023-04-24T10:04:56;7.13;;;1.60;;
20734;SDS011;10528;52.124;5.196;2023-04-24T10:07:26;8.27;;;1.73;;
20734;SDS011;10528;52.124;5.196;2023-04-24T10:09:53;5.03;;;1.70;;
20734;SDS011;10528;52.124;5.196;2023-04-24T10:12:21;4.60;;;1.40;;
20734;SDS011;10528;52.124;5.196;2023-04-24T10:14:49;5.53;;;1.25;;
20734;SDS011;10528;52.124;5.196;2023-04-24T10:17:16;5.32;;;1.38;;
20734;SDS011;10528;52.124;5.196;2023-04-24T10:19:46;3.65;;;1.02;;
20734;SDS011;10528;52.124;5.196;2023-04-24T10:22:14;4.15;;;0.70;;
20734;SDS011;10528;52.124;5.196;2023-04-24T10:24:44;8.15;;;1.38;;
20734;SDS011;10528;52.124;5.196;2023-04-24T10:27:13;2.33;;;0.85;;
20734;SDS011;10528;52.124;5.196;2023-04-24T10:29:41;1.77;;;0.70;;
20734;SDS011;10528;52.124;5.196;2023-04-24T10:32:11;4.03;;;0.80;;
20734;SDS011;10528;52.124;5.196;2023-04-24T10:34:38;3.38;;;0.75;;
20734;SDS011;10528;52.124;5.196;2023-04-24T10:37:05;5.75;;;0.95;;
20734;SDS011;10528;52.124;5.196;2023-04-24T10:39:32;4.07;;;0.80;;
20734;SDS011;10528;52.124;5.196;2023-04-24T10:41:59;3.95;;;0.95;;
20734;SDS011;10528;52.124;5.196;2023-04-24T10:44:27;4.65;;;1.00;;
20734;SDS011;10528;52.124;5.196;2023-04-24T10:47:02;4.78;;;0.80;;
20734;SDS011;10528;52.124;5.196;2023-04-24T10:49:31;3.38;;;0.90;;
20734;SDS011;10528;52.124;5.196;2023-04-24T10:52:02;3.00;;;0.73;;
20734;SDS011;10528;52.124;5.196;2023-04-24T10:59:46;3.00;;;0.90;;
20734;SDS011;10528;52.124;5.196;2023-04-24T11:02:52;4.97;;;1.17;;
20734;SDS011;10528;52.124;5.196;2023-04-24T11:05:20;8.70;;;1.05;;
20734;SDS011;10528;52.124;5.196;2023-04-24T11:10:54;6.90;;;1.30;;
20734;SDS011;10528;52.124;5.196;2023-04-24T11:13:27;2.88;;;0.93;;
20734;SDS011;10528;52.124;5.196;2023-04-24T11:16:31;4.78;;;1.02;;
20734;SDS011;10528;52.124;5.196;2023-04-24T11:19:18;4.15;;;0.70;;
20734;SDS011;10528;52.124;5.196;2023-04-24T11:24:38;5.05;;;1.00;;
20734;SDS011;10528;52.124;5.196;2023-04-24T11:27:20;4.40;;;1.10;;
20734;SDS011;10528;52.124;5.196;2023-04-24T11:29:49;4.95;;;1.00;;
20734;SDS011;10528;52.124;5.196;2023-04-24T11:35:01;4.95;;;0.80;;
20734;SDS011;10528;52.124;5.196;2023-04-24T11:37:34;3.78;;;0.65;;
20734;SDS011;10528;52.124;5.196;2023-04-24T11:40:03;1.83;;;0.40;;
20734;SDS011;10528;52.124;5.196;2023-04-24T11:42:33;2.22;;;0.43;;
20734;SDS011;10528;52.124;5.196;2023-04-24T11:45:09;3.05;;;0.57;;
20734;SDS011;10528;52.124;5.196;2023-04-24T11:47:42;3.38;;;0.47;;
20734;SDS011;10528;52.124;5.196;2023-04-24T11:50:11;3.13;;;0.52;;
20734;SDS011;10528;52.124;5.196;2023-04-24T11:52:44;3.35;;;0.68;;
20734;SDS011;10528;52.124;5.196;2023-04-24T11:57:46;4.30;;;0.90;;
20734;SDS011;10528;52.124;5.196;2023-04-24T12:00:16;6.50;;;0.90;;
20734;SDS011;10528;52.124;5.196;2023-04-24T12:02:46;5.32;;;0.82;;
20734;SDS011;10528;52.124;5.196;2023-04-24T12:07:54;6.68;;;0.80;;
20734;SDS011;10528;52.124;5.196;2023-04-24T12:10:21;3.88;;;0.80;;
20734;SDS011;10528;52.124;5.196;2023-04-24T12:12:55;2.85;;;0.70;;
20734;SDS011;10528;52.124;5.196;2023-04-24T12:15:24;4.28;;;0.88;;
20734;SDS011;10528;52.124;5.196;2023-04-24T12:17:53;4.95;;;0.98;;
20734;SDS011;10528;52.124;5.196;2023-04-24T12:20:24;5.78;;;1.00;;
20734;SDS011;10528;52.124;5.196;2023-04-24T12:22:56;8.38;;;1.10;;
20734;SDS011;10528;52.124;5.196;2023-04-24T12:25:25;6.03;;;1.30;;
20734;SDS011;10528;52.124;5.196;2023-04-24T12:27:55;5.15;;;0.95;;
20734;SDS011;10528;52.124;5.196;2023-04-24T12:30:32;6.88;;;1.40;;
20734;SDS011;10528;52.124;5.196;2023-04-24T12:33:02;6.07;;;1.30;;
20734;SDS011;10528;52.124;5.196;2023-04-24T12:35:30;6.25;;;1.42;;
20734;SDS011;10528;52.124;5.196;2023-04-24T12:38:10;6.18;;;1.45;;
20734;SDS011;10528;52.124;5.196;2023-04-24T12:40:39;8.13;;;1.33;;
20734;SDS011;10528;52.124;5.196;2023-04-24T12:43:14;5.40;;;1.30;;
20734;SDS011;10528;52.124;5.196;2023-04-24T12:45:44;6.75;;;1.60;;
20734;SDS011;10528;52.124;5.196;2023-04-24T12:48:11;10.50;;;1.77;;
20734;SDS011;10528;52.124;5.196;2023-04-24T12:50:40;9.45;;;1.42;;
20734;SDS011;10528;52.124;5.196;2023-04-24T12:53:12;5.65;;;1.60;;
20734;SDS011;10528;52.124;5.196;2023-04-24T12:55:39;10.07;;;1.95;;
20734;SDS011;10528;52.124;5.196;2023-04-24T12:58:06;11.18;;;2.22;;
20734;SDS011;10528;52.124;5.196;2023-04-24T13:00:34;10.30;;;3.20;;
20734;SDS011;10528;52.124;5.196;2023-04-24T13:03:01;13.05;;;3.08;;
20734;SDS011;10528;52.124;5.196;2023-04-24T13:05:29;9.80;;;2.45;;
20734;SDS011;10528;52.124;5.196;2023-04-24T13:07:56;5.43;;;1.92;;
20734;SDS011;10528;52.124;5.196;2023-04-24T13:10:23;12.15;;;2.55;;
20734;SDS011;10528;52.124;5.196;2023-04-24T13:12:51;9.98;;;2.42;;
20734;SDS011;10528;52.124;5.196;2023-04-24T13:15:17;10.55;;;2.70;;
20734;SDS011;10528;52.124;5.196;2023-04-24T13:17:44;8.45;;;2.08;;
20734;SDS011;10528;52.124;5.196;2023-04-24T13:20:11;10.18;;;2.78;;
20734;SDS011;10528;52.124;5.196;2023-04-24T13:22:38;13.05;;;2.63;;
20734;SDS011;10528;52.124;5.196;2023-04-24T13:25:05;8.82;;;2.58;;
20734;SDS011;10528;52.124;5.196;2023-04-24T13:27:33;8.10;;;2.35;;
20734;SDS011;10528;52.124;5.196;2023-04-24T13:30:00;10.90;;;2.30;;
20734;SDS011;10528;52.124;5.196;2023-04-24T13:32:27;13.18;;;2.78;;
20734;SDS011;10528;52.124;5.196;2023-04-24T13:34:55;10.38;;;2.95;;
20734;SDS011;10528;52.124;5.196;2023-04-24T13:37:22;9.10;;;2.45;;
20734;SDS011;10528;52.124;5.196;2023-04-24T13:39:49;8.25;;;3.03;;
20734;SDS011;10528;52.124;5.196;2023-04-24T13:42:17;12.73;;;3.30;;
20734;SDS011;10528;52.124;5.196;2023-04-24T13:44:44;10.82;;;2.58;;
20734;SDS011;10528;52.124;5.196;2023-04-24T13:47:11;14.15;;;3.08;;
20734;SDS011;10528;52.124;5.196;2023-04-24T13:49:38;8.38;;;2.00;;
20734;SDS011;10528;52.124;5.196;2023-04-24T13:52:05;7.28;;;2.33;;
20734;SDS011;10528;52.124;5.196;2023-04-24T13:54:33;9.07;;;2.65;;
20734;SDS011;10528;52.124;5.196;2023-04-24T13:57:00;7.97;;;2.30;;
20734;SDS011;10528;52.124;5.196;2023-04-24T13:59:29;7.05;;;2.50;;
20734;SDS011;10528;52.124;5.196;2023-04-24T14:01:55;10.43;;;2.60;;
20734;SDS011;10528;52.124;5.196;2023-04-24T14:04:22;8.00;;;2.38;;
20734;SDS011;10528;52.124;5.196;2023-04-24T14:06:50;9.50;;;2.85;;
20734;SDS011;10528;52.124;5.196;2023-04-24T14:09:17;12.05;;;2.30;;
20734;SDS011;10528;52.124;5.196;2023-04-24T14:11:44;6.75;;;2.30;;
20734;SDS011;10528;52.124;5.196;2023-04-24T14:14:11;12.10;;;2.85;;
20734;SDS011;10528;52.124;5.196;2023-04-24T14:16:37;14.68;;;5.13;;
20734;SDS011;10528;52.124;5.196;2023-04-24T14:19:05;10.75;;;2.95;;
20734;SDS011;10528;52.124;5.196;2023-04-24T14:21:32;9.13;;;2.40;;
20734;SDS011;10528;52.124;5.196;2023-04-24T14:23:59;7.60;;;2.15;;
20734;SDS011;10528;52.124;5.196;2023-04-24T14:26:26;10.73;;;2.80;;
20734;SDS011;10528;52.124;5.196;2023-04-24T14:28:53;9.30;;;2.83;;
20734;SDS011;10528;52.124;5.196;2023-04-24T14:31:39;8.52;;;2.60;;
20734;SDS011;10528;52.124;5.196;2023-04-24T14:34:06;9.50;;;2.60;;
20734;SDS011;10528;52.124;5.196;2023-04-24T14:36:32;11.13;;;2.67;;
20734;SDS011;10528;52.124;5.196;2023-04-24T14:38:59;7.50;;;2.67;;
20734;SDS011;10528;52.124;5.196;2023-04-24T14:41:31;10.05;;;2.63;;
20734;SDS011;10528;52.124;5.196;2023-04-24T14:44:02;12.15;;;2.97;;
20734;SDS011;10528;52.124;5.196;2023-04-24T14:46:32;13.80;;;3.00;;
20734;SDS011;10528;52.124;5.196;2023-04-24T14:48:59;11.77;;;3.35;;
20734;SDS011;10528;52.124;5.196;2023-04-24T14:51:26;10.90;;;3.30;;
20734;SDS011;10528;52.124;5.196;2023-04-24T14:53:53;12.70;;;3.58;;
20734;SDS011;10528;52.124;5.196;2023-04-24T14:56:20;7.65;;;2.80;;
20734;SDS011;10528;52.124;5.196;2023-04-24T14:58:47;10.23;;;3.13;;
20734;SDS011;10528;52.124;5.196;2023-04-24T15:01:14;10.30;;;2.58;;
20734;SDS011;10528;52.124;5.196;2023-04-24T15:03:43;10.43;;;2.88;;
20734;SDS011;10528;52.124;5.196;2023-04-24T15:06:11;9.77;;;2.70;;
20734;SDS011;10528;52.124;5.196;2023-04-24T15:08:38;10.85;;;3.30;;
20734;SDS011;10528;52.124;5.196;2023-04-24T15:11:04;8.48;;;2.53;;
20734;SDS011;10528;52.124;5.196;2023-04-24T15:13:31;9.93;;;3.20;;